Pagrindinis puslapis
METAR-TAF:

METAR-TAF

Oro uostai :

Point Lay, Aliaska, Jungtinės Amerikos Valstijos

platuma: 69-43N, ilguma: 163-00W, Aukštis: 8 m

Dabartinis oras

Ataskaita buvo paskelbta 26 minutes, ne 23:19 UTC
Vėjas 7 kt iš Vakarų/Šiaurės Vakarų
Temperatūra 3°C
Drėgmė 93%
Slėgis 1016 hPa
Matomumas: 0.4 km
Apsiniaukę ne aukštis 300 ft
rūkas

METAR: PPIZ 052319Z AUTO 30007KT 1/4SM FG OVC003 03/02 A2999 RMK AO2

Laikas: 15:45 (23:45 UTC)


TAF: trūkstamas

Orai ataskaitas ir orų prognozės (METAR, TAF).

turimą stotys yra geltonos ir raudonos taškus žemėlapyje.

Perkelti pele per norėdami pamatyti stoties vardą.

Tada spustelėkite, norėdami matyti oro stebėjimo ir prognozės.

Norėdami pakeisti žemėlapį: spustelėkite ant žalios mygtukų su juodo kryžiaus žemyn,; žalią mygtuką su brūkšneliu, jei norite nutolinti; arba žalių rodyklių gretimoms žemėlapius.


METAR-TAF: